Latest Weather Observations for Oenpelli Airport

IDD60801

Issued at 8:01 pm CST Sunday 24 July 2016 (issued every 30 minutes, with the page automatically refreshed every 10 minutes)

About weather observations | Map of weather stations | Latest weather observations for NT | Other Formats
Station Details ID: 014310 Name: OENPELLI AIRPORT Lat: -12.33 Lon: 133.01 Height: 7.5 m
Data from the previous 72 hours. | See also: Recent months at Oenpelli Airport
Date/Time
CST
Temp
°C
App
Temp
°C
Dew
Point
°C
Rel
Hum
%
Delta-T
°C
Wind Press
QNH
hPa
Press
MSL
hPa
Rain since
9am
mm
Dir  Spd
km/h
Gust
km/h
Spd
kts
Gust
kts
24/08:00pm 27.5 29.2 18.5 58 5.8 NNE 7 11 4 6 1011.3 1011.2 0.0
24/07:30pm 27.7 29.1 17.8 54 6.3 NE 7 9 4 5 1010.9 1010.8 0.0
24/07:00pm 28.6 30.1 18.1 53 6.7 NE 7 11 4 6 1010.4 1010.3 0.0
24/06:30pm 29.9 30.1 17.7 48 7.8 NNE 13 20 7 11 1009.9 1009.8 0.0
24/06:00pm 32.5 32.5 15.1 35 10.8 ENE 9 13 5 7 1009.5 1009.4 0.0
24/05:30pm 33.8 32.5 14.8 32 11.8 ENE 15 22 8 12 1009.3 1009.2 0.0
24/05:00pm 34.5 33.6 14.9 31 12.2 ENE 13 22 7 12 1009.0 1008.9 0.0
24/04:30pm 34.4 33.3 14.3 30 12.4 E 13 20 7 11 1009.0 1008.9 0.0
24/04:00pm 35.1 33.3 13.3 27 13.2 E 15 30 8 16 1008.9 1008.8 0.0
24/03:30pm 35.3 33.0 14.0 28 13.1 ENE 19 28 10 15 1009.0 1008.9 0.0
24/03:00pm 35.0 33.0 13.8 28 13.0 ENE 17 26 9 14 1009.3 1009.2 0.0
24/02:30pm 35.2 33.4 14.5 29 12.8 E 17 24 9 13 1009.7 1009.6 0.0
24/02:00pm 34.6 32.6 14.0 29 12.6 ESE 17 28 9 15 1010.2 1010.1 0.0
24/01:30pm 34.9 32.6 14.2 28 12.7 SE 19 32 10 17 1010.8 1010.7 0.0
24/01:00pm 34.4 32.0 13.8 29 12.6 ESE 19 35 10 19 1011.3 1011.2 0.0
24/12:30pm 33.3 30.4 13.9 31 11.8 ESE 22 35 12 19 1011.8 1011.7 0.0
24/12:00pm 33.8 31.2 14.8 32 11.7 SE 22 33 12 18 1012.5 1012.4 0.0
24/11:30am 32.8 32.2 16.6 38 10.2 ESE 15 26 8 14 1012.9 1012.8 0.0
24/11:00am 31.6 30.6 17.5 43 9.0 E 19 26 10 14 1013.3 1013.2 0.0
24/10:30am 30.9 30.4 17.9 45 8.3 ESE 17 24 9 13 1013.5 1013.4 0.0
24/10:00am 29.8 31.5 20.1 56 6.4 SE 11 19 6 10 1013.7 1013.6 0.0
24/09:30am 28.8 30.3 20.5 61 5.5 SE 13 20 7 11 1013.7 1013.6 0.0
24/09:00am 27.2 31.5 22.6 76 3.1 S 4 6 2 3 1013.6 1013.5 0.0
24/08:30am 25.2 29.3 22.3 84 1.9 SW 4 6 2 3 1013.7 1013.6 0.0
24/08:00am 23.7 27.7 22.0 90 1.1 SW 4 6 2 3 1013.4 1013.3 0.0
24/07:30am 23.0 27.3 22.0 94 0.7 SW 2 4 1 2 1013.1 1013.0 0.0
24/07:00am 22.6 26.1 21.8 95 0.5 SW 6 7 3 4 1012.7 1012.6 0.0
24/06:30am 22.2 25.8 21.2 94 0.7 NW 4 6 2 3 1012.3 1012.2 0.0
24/06:00am 21.8 25.3 20.4 92 0.9 NW 2 4 1 2 1012.0 1011.9 0.0
24/05:30am 21.5 25.2 20.0 91 1.0 CALM 0 0 0 0 1011.9 1011.8 0.0
24/05:00am 21.1 24.4 19.2 89 1.2 CALM 0 0 0 0 1011.8 1011.7 0.0
24/04:30am 21.3 24.7 19.4 89 1.2 CALM 0 0 0 0 1011.5 1011.4 0.0
24/04:00am 21.7 24.8 19.6 88 1.3 NNW 2 2 1 1 1011.4 1011.3 0.0
24/03:30am 21.9 25.4 19.5 86 1.5 CALM 0 0 0 0 1011.4 1011.3 0.0
24/03:00am 23.0 26.9 20.3 85 1.7 CALM 0 0 0 0 1011.3 1011.2 0.0
24/02:30am 24.0 27.9 21.1 84 1.9 N 2 4 1 2 1011.4 1011.3 0.0
24/02:00am 24.4 28.0 21.3 83 2.0 N 4 4 2 2 1011.6 1011.5 0.0
24/01:30am 24.6 27.8 21.3 82 2.2 NNE 6 6 3 3 1011.7 1011.6 0.0
24/01:00am 24.5 27.6 21.0 81 2.3 NE 6 7 3 4 1011.9 1011.8 0.0
24/12:30am 24.6 27.6 20.9 80 2.4 NE 6 7 3 4 1012.0 1011.9 0.0
24/12:00am 24.8 27.6 20.5 77 2.8 NE 6 7 3 4 1011.9 1011.8 0.0
 
Date/Time
CST
Temp
°C
App
Temp
°C
Dew
Point
°C
Rel
Hum
%
Delta-T
°C
Wind Press
QNH
hPa
Press
MSL
hPa
Rain since
9am
mm
Dir  Spd
km/h
Gust
km/h
Spd
kts
Gust
kts
23/11:30pm 25.4 27.3 20.6 75 3.1 NE 11 17 6 9 1011.7 1011.6 0.0
23/11:00pm 25.5 27.7 20.3 73 3.4 NE 9 13 5 7 1011.7 1011.6 0.0
23/10:30pm 25.1 27.2 19.0 69 3.9 NNE 6 9 3 5 1011.7 1011.6 0.0
23/10:00pm 25.9 27.9 19.1 66 4.4 NNE 7 11 4 6 1011.3 1011.2 0.0
23/09:30pm 26.0 28.2 18.4 63 4.8 N 4 6 2 3 1010.9 1010.8 0.0
23/09:00pm 26.4 28.7 18.5 62 5.0 NNE 4 6 2 3 1010.6 1010.5 0.0
23/08:30pm 27.0 29.2 18.3 59 5.5 ENE 4 6 2 3 1010.2 1010.1 0.0
23/08:00pm 27.7 29.4 18.1 56 6.1 NE 6 7 3 4 1010.0 1009.9 0.0
23/07:30pm 29.0 29.6 17.8 50 7.1 N 11 15 6 8 1009.5 1009.4 0.0
23/07:00pm 30.2 31.3 16.6 44 8.5 NE 6 7 3 4 1009.1 1009.0 0.0
23/06:30pm 31.6 33.4 16.4 40 9.6 E 2 7 1 4 1008.8 1008.7 0.0
23/06:00pm 32.7 33.0 16.1 37 10.4 E 9 13 5 7 1008.6 1008.5 0.0
23/05:30pm 34.0 34.1 16.4 35 11.2 ENE 11 17 6 9 1008.4 1008.3 0.0
23/05:00pm 34.1 34.0 16.0 34 11.4 E 11 17 6 9 1008.4 1008.3 0.0
23/04:30pm 34.4 34.4 16.3 34 11.5 E 11 19 6 10 1008.3 1008.2 0.0
23/04:00pm 34.3 33.5 16.2 34 11.4 ESE 15 24 8 13 1008.5 1008.4 0.0
23/03:30pm 34.5 33.8 16.4 34 11.5 E 15 24 8 13 1008.7 1008.6 0.0
23/03:00pm 34.1 34.6 16.5 35 11.2 ESE 9 20 5 11 1009.0 1008.9 0.0
23/02:30pm 34.0 33.8 16.8 35 11.0 E 13 26 7 14 1009.4 1009.3 0.0
23/02:00pm 33.9 33.7 16.7 35 10.9 E 13 26 7 14 1009.9 1009.8 0.0
23/01:30pm 33.4 32.8 16.7 36 10.6 ENE 15 22 8 12 1010.6 1010.5 0.0
23/01:00pm 33.2 32.7 17.0 38 10.3 E 15 24 8 13 1010.9 1010.8 0.0
23/12:30pm 32.3 32.4 16.6 39 9.9 E 11 20 6 11 1011.2 1011.1 0.0
23/12:00pm 32.2 32.1 16.9 40 9.7 ESE 13 22 7 12 1011.8 1011.7 0.0
23/11:30am 32.1 32.8 17.9 42 9.1 ENE 11 20 6 11 1012.3 1012.2 0.0
23/11:00am 31.4 34.1 19.4 49 7.9 NE 4 26 2 14 1012.8 1012.7 0.0
23/10:30am 29.9 33.0 20.2 56 6.4 N 4 11 2 6 1013.2 1013.1 0.0
23/10:00am 28.8 31.0 19.7 58 5.9 NE 7 13 4 7 1013.3 1013.2 0.0
23/09:30am 28.6 32.1 20.3 60 5.5 NNE 2 6 1 3 1013.2 1013.1 0.0
23/09:00am 27.3 31.8 21.6 71 3.8 CALM 0 0 0 0 1013.3 1013.2 0.0
23/08:30am 24.2 28.0 20.9 82 2.2 S 2 4 1 2 1013.0 1012.9 0.0
23/08:00am 22.0 25.6 19.7 87 1.5 CALM 0 0 0 0 1012.8 1012.7 0.0
23/07:30am 20.0 22.1 18.1 89 1.2 WNW 4 6 2 3 1012.7 1012.6 0.0
23/07:00am 20.1 23.0 18.2 89 1.2 CALM 0 0 0 0 1012.4 1012.3 0.0
23/06:30am 20.2 23.1 18.1 88 1.3 CALM 0 0 0 0 1012.1 1012.0 0.0
23/06:00am 20.3 23.2 18.2 88 1.3 CALM 0 0 0 0 1011.8 1011.7 0.0
23/05:30am 20.6 23.2 18.5 88 1.3 WNW 2 4 1 2 1011.6 1011.5 0.0
23/05:00am 20.3 23.2 18.1 87 1.4 CALM 0 0 0 0 1011.2 1011.1 0.0
23/04:30am 20.8 23.9 18.6 87 1.4 CALM 0 0 0 0 1011.0 1010.9 0.0
23/04:00am 20.9 23.3 18.7 87 1.4 NW 4 6 2 3 1011.0 1010.9 0.0
23/03:30am 21.5 24.5 19.2 87 1.5 NNW 2 6 1 3 1011.0 1010.9 0.0
23/03:00am 21.1 24.1 18.5 85 1.6 CALM 0 0 0 0 1011.2 1011.1 0.0
23/02:30am 21.1 23.7 18.3 84 1.7 NNW 2 4 1 2 1011.3 1011.2 0.0
23/02:00am 22.0 25.3 19.0 83 1.9 CALM 0 0 0 0 1011.3 1011.2 0.0
23/01:30am 21.9 24.6 18.7 82 2.0 NNW 2 4 1 2 1011.5 1011.4 0.0
23/01:00am 21.7 24.3 18.3 81 2.1 NNW 2 4 1 2 1011.6 1011.5 0.0
23/12:30am 22.2 25.2 18.4 79 2.4 CALM 0 0 0 0 1011.6 1011.5 0.0
23/12:00am 23.0 26.1 18.7 77 2.7 CALM 0 0 0 0 1011.6 1011.5 0.0
 
Date/Time
CST
Temp
°C
App
Temp
°C
Dew
Point
°C
Rel
Hum
%
Delta-T
°C
Wind Press
QNH
hPa
Press
MSL
hPa
Rain since
9am
mm
Dir  Spd
km/h
Gust
km/h
Spd
kts
Gust
kts
22/11:30pm 23.4 26.6 18.9 76 2.9 CALM 0 0 0 0 1011.5 1011.4 0.0
22/11:00pm 23.8 27.0 18.9 74 3.1 CALM 0 0 0 0 1011.7 1011.6 0.0
22/10:30pm 24.9 27.3 18.8 69 3.9 NNW 4 6 2 3 1011.6 1011.5 0.0
22/10:00pm 25.3 27.4 19.0 68 4.0 N 6 6 3 3 1011.4 1011.3 0.0
22/09:30pm 25.6 28.0 18.8 66 4.3 N 4 4 2 2 1011.1 1011.0 0.0
22/09:00pm 26.1 28.4 18.5 63 4.8 N 4 7 2 4 1011.0 1010.9 0.0
22/08:30pm 27.0 29.3 18.6 60 5.4 NNE 4 6 2 3 1010.7 1010.6 0.0
22/08:00pm 27.9 30.0 18.9 58 5.8 NNE 6 9 3 5 1010.4 1010.3 0.0
22/07:30pm 28.5 30.0 18.9 56 6.2 N 9 13 5 7 1010.1 1010.0 0.0
22/07:00pm 29.2 30.3 18.9 53 6.7 N 11 17 6 9 1009.8 1009.7 0.0
22/06:30pm 30.7 32.4 18.1 47 8.1 N 6 7 3 4 1009.6 1009.5 0.0
22/06:00pm 32.1 33.2 17.2 41 9.5 NE 7 13 4 7 1009.4 1009.3 0.0
22/05:30pm 33.3 33.7 16.2 36 10.8 ENE 9 13 5 7 1009.2 1009.1 0.0
22/05:00pm 33.8 33.6 15.7 33 11.3 ENE 11 17 6 9 1009.1 1009.0 0.0
22/04:30pm 34.3 34.3 16.2 34 11.5 E 11 17 6 9 1009.0 1008.9 0.0
22/04:00pm 34.6 34.1 16.0 33 11.7 NE 13 20 7 11 1009.1 1009.0 0.0
22/03:30pm 34.4 33.7 16.3 34 11.5 NE 15 20 8 11 1009.5 1009.4 0.0
22/03:00pm 34.2 33.6 15.6 32 11.7 ENE 13 20 7 11 1009.7 1009.6 0.0
22/02:30pm 34.3 33.5 16.2 34 11.4 NE 15 24 8 13 1009.9 1009.8 0.0
22/02:00pm 34.3 33.3 16.6 34 11.2 ENE 17 28 9 15 1010.2 1010.1 0.0
22/01:30pm 33.8 33.6 16.6 35 10.9 E 13 22 7 12 1010.6 1010.5 0.0
22/01:00pm 32.9 31.2 15.8 35 10.7 E 19 28 10 15 1010.9 1010.8 0.0
22/12:30pm 33.2 32.2 16.5 36 10.6 E 17 28 9 15 1011.4 1011.3 0.0
22/12:00pm 33.0 31.4 16.4 37 10.5 ENE 20 30 11 16 1011.9 1011.8 0.0
22/11:30am 32.4 31.1 16.7 39 9.9 E 19 32 10 17 1012.5 1012.4 0.0
22/11:00am 31.6 30.8 17.9 44 8.8 ESE 19 24 10 13 1013.0 1012.9 0.0
22/10:30am 31.3 33.0 18.6 46 8.2 E 7 17 4 9 1013.2 1013.1 0.0
22/10:00am 29.8 32.2 18.9 52 7.1 SE 4 13 2 7 1013.5 1013.4 0.0
22/09:30am 28.4 31.0 19.3 57 5.9 SSE 4 7 2 4 1013.5 1013.4 0.0
22/09:00am 26.6 29.6 19.2 64 4.8 WSW 2 6 1 3 1013.6 1013.5 0.0
22/08:30am 24.3 27.0 18.7 71 3.6 W 2 4 1 2 1013.6 1013.5 0.0
22/08:00am 21.8 24.7 18.2 80 2.2 CALM 0 0 0 0 1013.3 1013.2 0.0
22/07:30am 20.1 22.5 17.1 83 1.8 CALM 0 0 0 0 1013.1 1013.0 0.0
22/07:00am 19.5 21.6 16.3 82 1.9 CALM 0 0 0 0 1013.1 1013.0 0.0
22/06:30am 20.4 22.7 16.8 80 2.2 CALM 0 0 0 0 1012.9 1012.8 0.0
22/06:00am 21.1 23.7 17.5 80 2.2 CALM 0 2 0 1 1012.8 1012.7 0.0
22/05:30am 20.5 22.6 17.1 81 2.1 SW 2 4 1 2 1012.7 1012.6 0.0
22/05:00am 21.2 23.8 17.4 79 2.3 CALM 0 2 0 1 1012.5 1012.4 0.0
22/04:30am 20.3 22.7 17.1 82 2.0 CALM 0 2 0 1 1012.4 1012.3 0.0
22/04:00am 20.4 22.7 16.8 80 2.2 CALM 0 0 0 0 1012.2 1012.1 0.0
22/03:30am 20.5 22.6 16.3 77 2.5 CALM 0 0 0 0 1012.3 1012.2 0.0
22/03:00am 21.7 24.1 17.1 75 2.8 CALM 0 0 0 0 1012.5 1012.4 0.0
22/02:30am 21.5 23.8 16.7 74 2.9 CALM 0 0 0 0 1012.6 1012.5 0.0
22/02:00am 21.8 24.2 17.0 74 2.9 CALM 0 0 0 0 1012.7 1012.6 0.0
22/01:30am 21.9 23.8 16.6 72 3.2 ENE 2 2 1 1 1012.8 1012.7 0.0
22/01:00am 21.6 23.9 16.8 74 2.9 CALM 0 0 0 0 1012.7 1012.6 0.0
22/12:30am 22.1 24.5 17.0 73 3.1 CALM 0 0 0 0 1012.5 1012.4 0.0
22/12:00am 21.9 24.2 16.8 73 3.1 CALM 0 0 0 0 1012.5 1012.4 0.0
 
Date/Time
CST
Temp
°C
App
Temp
°C
Dew
Point
°C
Rel
Hum
%
Delta-T
°C
Wind Press
QNH
hPa
Press
MSL
hPa
Rain since
9am
mm
Dir  Spd
km/h
Gust
km/h
Spd
kts
Gust
kts
21/11:30pm 22.0 24.3 16.7 72 3.2 CALM 0 0 0 0 1012.6 1012.5 0.0
21/11:00pm 22.4 24.5 16.2 68 3.8 CALM 0 0 0 0 1012.5 1012.4 0.0
21/10:30pm 23.0 25.1 16.3 66 4.1 CALM 0 0 0 0 1012.6 1012.5 0.0
21/10:00pm 23.6 25.6 16.1 62 4.6 CALM 0 0 0 0 1012.5 1012.4 0.0
21/09:30pm 23.4 25.5 16.2 64 4.4 CALM 0 0 0 0 1012.4 1012.3 0.0
21/09:00pm 22.9 24.8 15.7 64 4.3 CALM 0 0 0 0 1012.1 1012.0 0.0
21/08:30pm 24.3 25.9 15.0 56 5.6 CALM 0 4 0 2 1011.9 1011.8 0.0

Other Formats:

Comma delimited format used in spreadsheet applications
http://www.bom.gov.au/fwo/IDD60801/IDD60801.94110.axf

JavaScript Object Notation format (JSON) in row-major order
http://www.bom.gov.au/fwo/IDD60801/IDD60801.94110.json